sensor_id;sensor_type;location;lat;lon;timestamp;P1;durP1;ratioP1;P2;durP2;ratioP2
25846;SDS011;13676;50.168;8.568;2022-09-09T00:04:03;1.55;;;0.68;;
25846;SDS011;13676;50.168;8.568;2022-09-09T00:06:42;2.88;;;0.95;;
25846;SDS011;13676;50.168;8.568;2022-09-09T00:09:16;2.13;;;0.80;;
25846;SDS011;13676;50.168;8.568;2022-09-09T00:11:43;1.25;;;0.80;;
25846;SDS011;13676;50.168;8.568;2022-09-09T00:14:26;3.47;;;0.98;;
25846;SDS011;13676;50.168;8.568;2022-09-09T00:25:53;1.45;;;0.70;;
25846;SDS011;13676;50.168;8.568;2022-09-09T00:28:29;2.83;;;1.05;;
25846;SDS011;13676;50.168;8.568;2022-09-09T00:30:59;3.67;;;1.05;;
25846;SDS011;13676;50.168;8.568;2022-09-09T00:33:27;1.33;;;0.70;;
25846;SDS011;13676;50.168;8.568;2022-09-09T00:35:59;1.58;;;0.90;;
25846;SDS011;13676;50.168;8.568;2022-09-09T00:40:56;2.35;;;0.95;;
25846;SDS011;13676;50.168;8.568;2022-09-09T00:43:31;2.37;;;0.87;;
25846;SDS011;13676;50.168;8.568;2022-09-09T00:48:47;2.42;;;0.80;;
25846;SDS011;13676;50.168;8.568;2022-09-09T00:51:44;2.70;;;0.60;;
25846;SDS011;13676;50.168;8.568;2022-09-09T00:54:22;1.63;;;0.63;;
25846;SDS011;13676;50.168;8.568;2022-09-09T00:59:59;2.45;;;0.95;;
25846;SDS011;13676;50.168;8.568;2022-09-09T01:02:16;2.38;;;0.90;;
25846;SDS011;13676;50.168;8.568;2022-09-09T01:04:47;2.05;;;0.80;;
25846;SDS011;13676;50.168;8.568;2022-09-09T01:07:16;1.80;;;0.75;;
25846;SDS011;13676;50.168;8.568;2022-09-09T01:09:57;1.58;;;0.75;;
25846;SDS011;13676;50.168;8.568;2022-09-09T01:12:24;1.85;;;0.75;;
25846;SDS011;13676;50.168;8.568;2022-09-09T01:15:26;1.83;;;0.77;;
25846;SDS011;13676;50.168;8.568;2022-09-09T01:20:24;2.88;;;0.98;;
25846;SDS011;13676;50.168;8.568;2022-09-09T01:25:29;1.85;;;0.80;;
25846;SDS011;13676;50.168;8.568;2022-09-09T01:28:08;1.73;;;0.70;;
25846;SDS011;13676;50.168;8.568;2022-09-09T01:30:38;3.05;;;0.98;;
25846;SDS011;13676;50.168;8.568;2022-09-09T01:33:04;1.40;;;0.70;;
25846;SDS011;13676;50.168;8.568;2022-09-09T01:38:16;4.47;;;0.70;;
25846;SDS011;13676;50.168;8.568;2022-09-09T01:40:42;1.23;;;0.70;;
25846;SDS011;13676;50.168;8.568;2022-09-09T01:43:07;1.55;;;0.90;;
25846;SDS011;13676;50.168;8.568;2022-09-09T01:45:33;3.65;;;1.10;;
25846;SDS011;13676;50.168;8.568;2022-09-09T01:47:59;2.58;;;1.02;;
25846;SDS011;13676;50.168;8.568;2022-09-09T01:50:24;2.22;;;0.90;;
25846;SDS011;13676;50.168;8.568;2022-09-09T01:52:52;2.95;;;0.90;;
25846;SDS011;13676;50.168;8.568;2022-09-09T01:55:24;2.60;;;0.90;;
25846;SDS011;13676;50.168;8.568;2022-09-09T01:57:58;1.33;;;0.90;;
25846;SDS011;13676;50.168;8.568;2022-09-09T02:03:04;1.92;;;0.70;;
25846;SDS011;13676;50.168;8.568;2022-09-09T02:05:36;2.83;;;0.98;;
25846;SDS011;13676;50.168;8.568;2022-09-09T02:08:15;3.90;;;0.90;;
25846;SDS011;13676;50.168;8.568;2022-09-09T02:11:05;1.27;;;0.60;;
25846;SDS011;13676;50.168;8.568;2022-09-09T02:13:32;3.22;;;0.80;;
25846;SDS011;13676;50.168;8.568;2022-09-09T02:16:02;1.60;;;0.88;;
25846;SDS011;13676;50.168;8.568;2022-09-09T02:18:53;2.72;;;0.88;;
25846;SDS011;13676;50.168;8.568;2022-09-09T02:21:22;4.90;;;1.20;;
25846;SDS011;13676;50.168;8.568;2022-09-09T02:23:48;2.92;;;1.00;;
25846;SDS011;13676;50.168;8.568;2022-09-09T02:26:17;1.95;;;1.10;;
25846;SDS011;13676;50.168;8.568;2022-09-09T02:28:45;2.38;;;0.95;;
25846;SDS011;13676;50.168;8.568;2022-09-09T02:31:11;2.78;;;0.85;;
25846;SDS011;13676;50.168;8.568;2022-09-09T02:33:39;2.57;;;1.00;;
25846;SDS011;13676;50.168;8.568;2022-09-09T02:36:08;2.25;;;0.90;;
25846;SDS011;13676;50.168;8.568;2022-09-09T02:38:36;1.88;;;0.88;;
25846;SDS011;13676;50.168;8.568;2022-09-09T02:41:04;1.45;;;0.77;;
25846;SDS011;13676;50.168;8.568;2022-09-09T02:43:34;1.80;;;0.80;;
25846;SDS011;13676;50.168;8.568;2022-09-09T02:56:51;3.60;;;0.88;;
25846;SDS011;13676;50.168;8.568;2022-09-09T02:59:19;1.63;;;0.75;;
25846;SDS011;13676;50.168;8.568;2022-09-09T03:01:45;4.25;;;1.10;;
25846;SDS011;13676;50.168;8.568;2022-09-09T03:04:10;1.70;;;0.80;;
25846;SDS011;13676;50.168;8.568;2022-09-09T03:06:36;1.70;;;0.70;;
25846;SDS011;13676;50.168;8.568;2022-09-09T03:09:01;1.15;;;0.80;;
25846;SDS011;13676;50.168;8.568;2022-09-09T03:11:27;2.17;;;0.90;;
25846;SDS011;13676;50.168;8.568;2022-09-09T03:13:53;0.95;;;0.70;;
25846;SDS011;13676;50.168;8.568;2022-09-09T03:16:21;1.92;;;0.75;;
25846;SDS011;13676;50.168;8.568;2022-09-09T03:18:47;1.00;;;0.77;;
25846;SDS011;13676;50.168;8.568;2022-09-09T03:21:12;3.08;;;1.10;;
25846;SDS011;13676;50.168;8.568;2022-09-09T03:23:37;2.42;;;0.80;;
25846;SDS011;13676;50.168;8.568;2022-09-09T03:26:03;1.15;;;0.63;;
25846;SDS011;13676;50.168;8.568;2022-09-09T03:28:28;3.08;;;1.08;;
25846;SDS011;13676;50.168;8.568;2022-09-09T03:30:59;2.05;;;0.65;;
25846;SDS011;13676;50.168;8.568;2022-09-09T03:33:25;1.98;;;0.80;;
25846;SDS011;13676;50.168;8.568;2022-09-09T03:35:51;3.55;;;0.90;;
25846;SDS011;13676;50.168;8.568;2022-09-09T03:38:16;2.45;;;0.80;;
25846;SDS011;13676;50.168;8.568;2022-09-09T03:40:51;1.73;;;0.82;;
25846;SDS011;13676;50.168;8.568;2022-09-09T03:43:20;2.17;;;0.88;;
25846;SDS011;13676;50.168;8.568;2022-09-09T03:45:46;2.65;;;0.80;;
25846;SDS011;13676;50.168;8.568;2022-09-09T03:48:15;3.00;;;0.85;;
25846;SDS011;13676;50.168;8.568;2022-09-09T03:50:48;2.67;;;0.90;;
25846;SDS011;13676;50.168;8.568;2022-09-09T03:53:15;2.35;;;0.80;;
25846;SDS011;13676;50.168;8.568;2022-09-09T03:55:48;2.80;;;1.30;;
25846;SDS011;13676;50.168;8.568;2022-09-09T03:58:15;1.80;;;1.10;;
25846;SDS011;13676;50.168;8.568;2022-09-09T04:00:41;2.97;;;0.90;;
25846;SDS011;13676;50.168;8.568;2022-09-09T04:03:11;2.83;;;1.00;;
25846;SDS011;13676;50.168;8.568;2022-09-09T04:05:39;2.05;;;0.88;;
25846;SDS011;13676;50.168;8.568;2022-09-09T04:08:07;2.13;;;1.00;;
25846;SDS011;13676;50.168;8.568;2022-09-09T04:10:33;2.50;;;0.70;;
25846;SDS011;13676;50.168;8.568;2022-09-09T04:13:01;2.60;;;1.02;;
25846;SDS011;13676;50.168;8.568;2022-09-09T04:15:27;1.85;;;0.90;;
25846;SDS011;13676;50.168;8.568;2022-09-09T04:17:53;4.25;;;1.00;;
25846;SDS011;13676;50.168;8.568;2022-09-09T04:20:18;3.40;;;1.10;;
25846;SDS011;13676;50.168;8.568;2022-09-09T04:22:44;2.10;;;0.90;;
25846;SDS011;13676;50.168;8.568;2022-09-09T04:25:09;3.00;;;1.00;;
25846;SDS011;13676;50.168;8.568;2022-09-09T04:27:35;1.95;;;0.70;;
25846;SDS011;13676;50.168;8.568;2022-09-09T04:30:00;3.47;;;1.38;;
25846;SDS011;13676;50.168;8.568;2022-09-09T04:32:25;1.23;;;0.70;;
25846;SDS011;13676;50.168;8.568;2022-09-09T04:34:54;1.42;;;0.80;;
25846;SDS011;13676;50.168;8.568;2022-09-09T04:37:19;1.73;;;1.10;;
25846;SDS011;13676;50.168;8.568;2022-09-09T04:39:44;2.05;;;0.80;;
25846;SDS011;13676;50.168;8.568;2022-09-09T04:42:10;3.25;;;1.27;;
25846;SDS011;13676;50.168;8.568;2022-09-09T04:44:37;2.28;;;0.82;;
25846;SDS011;13676;50.168;8.568;2022-09-09T04:47:03;1.48;;;0.95;;
25846;SDS011;13676;50.168;8.568;2022-09-09T04:49:28;2.83;;;0.90;;
25846;SDS011;13676;50.168;8.568;2022-09-09T04:51:56;2.67;;;0.93;;
25846;SDS011;13676;50.168;8.568;2022-09-09T04:54:21;1.98;;;1.00;;
25846;SDS011;13676;50.168;8.568;2022-09-09T04:56:47;3.97;;;1.33;;
25846;SDS011;13676;50.168;8.568;2022-09-09T04:59:12;3.20;;;1.42;;
25846;SDS011;13676;50.168;8.568;2022-09-09T05:01:37;3.15;;;1.42;;
25846;SDS011;13676;50.168;8.568;2022-09-09T05:04:03;2.65;;;1.20;;
25846;SDS011;13676;50.168;8.568;2022-09-09T05:06:28;2.33;;;1.25;;
25846;SDS011;13676;50.168;8.568;2022-09-09T05:08:56;3.47;;;1.10;;
25846;SDS011;13676;50.168;8.568;2022-09-09T05:11:24;4.10;;;1.00;;
25846;SDS011;13676;50.168;8.568;2022-09-09T05:13:51;2.60;;;1.00;;
25846;SDS011;13676;50.168;8.568;2022-09-09T05:16:17;2.00;;;0.73;;
25846;SDS011;13676;50.168;8.568;2022-09-09T05:18:42;3.78;;;0.98;;
25846;SDS011;13676;50.168;8.568;2022-09-09T05:21:08;1.10;;;0.80;;
25846;SDS011;13676;50.168;8.568;2022-09-09T05:23:35;2.95;;;1.20;;
25846;SDS011;13676;50.168;8.568;2022-09-09T05:26:01;3.72;;;1.40;;
25846;SDS011;13676;50.168;8.568;2022-09-09T05:28:26;4.03;;;1.33;;
25846;SDS011;13676;50.168;8.568;2022-09-09T05:31:03;2.25;;;1.33;;
25846;SDS011;13676;50.168;8.568;2022-09-09T05:33:37;2.58;;;1.00;;
25846;SDS011;13676;50.168;8.568;2022-09-09T05:36:06;3.55;;;1.20;;
25846;SDS011;13676;50.168;8.568;2022-09-09T05:38:33;3.20;;;1.33;;
25846;SDS011;13676;50.168;8.568;2022-09-09T05:40:59;2.00;;;1.00;;
25846;SDS011;13676;50.168;8.568;2022-09-09T05:43:25;3.13;;;1.13;;
25846;SDS011;13676;50.168;8.568;2022-09-09T05:46:04;4.82;;;1.02;;
25846;SDS011;13676;50.168;8.568;2022-09-09T05:48:31;2.97;;;1.05;;
25846;SDS011;13676;50.168;8.568;2022-09-09T05:50:58;1.77;;;0.97;;
25846;SDS011;13676;50.168;8.568;2022-09-09T05:53:25;2.65;;;1.15;;
25846;SDS011;13676;50.168;8.568;2022-09-09T05:55:58;2.67;;;1.05;;
25846;SDS011;13676;50.168;8.568;2022-09-09T05:58:24;4.00;;;1.23;;
25846;SDS011;13676;50.168;8.568;2022-09-09T06:00:50;3.65;;;1.30;;
25846;SDS011;13676;50.168;8.568;2022-09-09T06:03:15;2.70;;;1.23;;
25846;SDS011;13676;50.168;8.568;2022-09-09T06:05:41;4.95;;;1.45;;
25846;SDS011;13676;50.168;8.568;2022-09-09T06:08:07;3.78;;;1.45;;
25846;SDS011;13676;50.168;8.568;2022-09-09T06:10:32;3.58;;;1.20;;
25846;SDS011;13676;50.168;8.568;2022-09-09T06:12:59;4.75;;;1.42;;
25846;SDS011;13676;50.168;8.568;2022-09-09T06:15:24;3.03;;;1.50;;
25846;SDS011;13676;50.168;8.568;2022-09-09T06:17:53;3.38;;;1.33;;
25846;SDS011;13676;50.168;8.568;2022-09-09T06:20:20;2.83;;;1.38;;
25846;SDS011;13676;50.168;8.568;2022-09-09T06:22:47;2.70;;;1.30;;
25846;SDS011;13676;50.168;8.568;2022-09-09T06:25:13;5.37;;;1.70;;
25846;SDS011;13676;50.168;8.568;2022-09-09T06:27:39;5.20;;;1.52;;
25846;SDS011;13676;50.168;8.568;2022-09-09T06:30:04;6.07;;;1.77;;
25846;SDS011;13676;50.168;8.568;2022-09-09T06:32:30;5.38;;;1.25;;
25846;SDS011;13676;50.168;8.568;2022-09-09T06:34:56;5.18;;;1.70;;
25846;SDS011;13676;50.168;8.568;2022-09-09T06:37:21;3.50;;;1.67;;
25846;SDS011;13676;50.168;8.568;2022-09-09T06:39:49;4.45;;;1.80;;
25846;SDS011;13676;50.168;8.568;2022-09-09T06:42:14;3.33;;;1.60;;
25846;SDS011;13676;50.168;8.568;2022-09-09T06:44:40;9.35;;;1.70;;
25846;SDS011;13676;50.168;8.568;2022-09-09T06:47:06;8.10;;;2.10;;
25846;SDS011;13676;50.168;8.568;2022-09-09T06:49:31;6.05;;;1.65;;
25846;SDS011;13676;50.168;8.568;2022-09-09T06:51:56;3.17;;;1.60;;
25846;SDS011;13676;50.168;8.568;2022-09-09T06:54:22;3.13;;;1.33;;
25846;SDS011;13676;50.168;8.568;2022-09-09T06:56:48;6.63;;;1.70;;
25846;SDS011;13676;50.168;8.568;2022-09-09T06:59:14;3.60;;;1.60;;
25846;SDS011;13676;50.168;8.568;2022-09-09T07:01:41;3.75;;;1.90;;
25846;SDS011;13676;50.168;8.568;2022-09-09T07:04:08;3.95;;;1.40;;
25846;SDS011;13676;50.168;8.568;2022-09-09T07:06:36;5.30;;;1.40;;
25846;SDS011;13676;50.168;8.568;2022-09-09T07:09:04;6.13;;;1.55;;
25846;SDS011;13676;50.168;8.568;2022-09-09T07:11:32;3.58;;;1.15;;
25846;SDS011;13676;50.168;8.568;2022-09-09T07:13:59;4.75;;;1.23;;
25846;SDS011;13676;50.168;8.568;2022-09-09T07:16:25;2.35;;;1.13;;
25846;SDS011;13676;50.168;8.568;2022-09-09T07:18:51;3.28;;;1.23;;
25846;SDS011;13676;50.168;8.568;2022-09-09T07:21:17;4.32;;;0.82;;
25846;SDS011;13676;50.168;8.568;2022-09-09T07:23:43;3.20;;;1.27;;
25846;SDS011;13676;50.168;8.568;2022-09-09T07:26:13;2.97;;;1.20;;
25846;SDS011;13676;50.168;8.568;2022-09-09T07:28:40;2.70;;;1.13;;
25846;SDS011;13676;50.168;8.568;2022-09-09T07:31:06;3.40;;;1.52;;
25846;SDS011;13676;50.168;8.568;2022-09-09T07:33:34;6.93;;;1.42;;
25846;SDS011;13676;50.168;8.568;2022-09-09T07:36:04;5.88;;;1.63;;
25846;SDS011;13676;50.168;8.568;2022-09-09T07:38:32;5.30;;;1.70;;
25846;SDS011;13676;50.168;8.568;2022-09-09T07:41:05;2.72;;;1.30;;
25846;SDS011;13676;50.168;8.568;2022-09-09T07:43:30;7.90;;;1.52;;
25846;SDS011;13676;50.168;8.568;2022-09-09T07:45:59;3.28;;;1.00;;
25846;SDS011;13676;50.168;8.568;2022-09-09T07:48:26;6.13;;;1.35;;
25846;SDS011;13676;50.168;8.568;2022-09-09T07:50:52;4.18;;;1.40;;
25846;SDS011;13676;50.168;8.568;2022-09-09T07:53:18;6.43;;;1.27;;
25846;SDS011;13676;50.168;8.568;2022-09-09T07:55:44;3.33;;;1.00;;
25846;SDS011;13676;50.168;8.568;2022-09-09T07:58:10;2.78;;;0.93;;
25846;SDS011;13676;50.168;8.568;2022-09-09T08:00:35;6.00;;;1.40;;
25846;SDS011;13676;50.168;8.568;2022-09-09T08:03:01;15.77;;;3.05;;
25846;SDS011;13676;50.168;8.568;2022-09-09T08:05:27;5.80;;;1.40;;
25846;SDS011;13676;50.168;8.568;2022-09-09T08:07:52;5.40;;;1.50;;
25846;SDS011;13676;50.168;8.568;2022-09-09T08:10:17;4.85;;;1.20;;
25846;SDS011;13676;50.168;8.568;2022-09-09T08:12:43;10.13;;;1.30;;
25846;SDS011;13676;50.168;8.568;2022-09-09T08:15:09;6.40;;;1.40;;
25846;SDS011;13676;50.168;8.568;2022-09-09T08:17:34;4.45;;;1.05;;
25846;SDS011;13676;50.168;8.568;2022-09-09T08:19:59;3.38;;;1.33;;
25846;SDS011;13676;50.168;8.568;2022-09-09T08:22:29;3.92;;;1.20;;
25846;SDS011;13676;50.168;8.568;2022-09-09T08:24:54;2.88;;;1.08;;
25846;SDS011;13676;50.168;8.568;2022-09-09T08:27:20;6.57;;;1.27;;
25846;SDS011;13676;50.168;8.568;2022-09-09T08:29:45;3.75;;;1.38;;
25846;SDS011;13676;50.168;8.568;2022-09-09T08:32:10;5.22;;;1.27;;
25846;SDS011;13676;50.168;8.568;2022-09-09T08:34:35;3.83;;;1.50;;
25846;SDS011;13676;50.168;8.568;2022-09-09T08:37:01;4.35;;;1.30;;
25846;SDS011;13676;50.168;8.568;2022-09-09T08:39:26;5.05;;;1.58;;
25846;SDS011;13676;50.168;8.568;2022-09-09T08:42:07;6.40;;;1.70;;
25846;SDS011;13676;50.168;8.568;2022-09-09T08:48:12;6.53;;;1.63;;
25846;SDS011;13676;50.168;8.568;2022-09-09T08:50:44;6.72;;;1.88;;
25846;SDS011;13676;50.168;8.568;2022-09-09T08:55:48;5.63;;;1.50;;
25846;SDS011;13676;50.168;8.568;2022-09-09T08:58:20;5.78;;;1.38;;
25846;SDS011;13676;50.168;8.568;2022-09-09T09:03:48;7.95;;;2.58;;
25846;SDS011;13676;50.168;8.568;2022-09-09T09:09:00;6.15;;;1.48;;
25846;SDS011;13676;50.168;8.568;2022-09-09T09:11:35;3.90;;;1.20;;
25846;SDS011;13676;50.168;8.568;2022-09-09T09:14:16;8.07;;;1.67;;
25846;SDS011;13676;50.168;8.568;2022-09-09T09:16:59;5.07;;;1.73;;
25846;SDS011;13676;50.168;8.568;2022-09-09T09:19:26;7.68;;;2.03;;
25846;SDS011;13676;50.168;8.568;2022-09-09T09:21:54;51.72;;;16.98;;
25846;SDS011;13676;50.168;8.568;2022-09-09T09:24:31;25.67;;;8.52;;
25846;SDS011;13676;50.168;8.568;2022-09-09T09:27:06;10.55;;;3.88;;
25846;SDS011;13676;50.168;8.568;2022-09-09T09:29:37;17.80;;;5.03;;
25846;SDS011;13676;50.168;8.568;2022-09-09T09:32:03;16.40;;;7.45;;
25846;SDS011;13676;50.168;8.568;2022-09-09T09:34:28;17.35;;;8.57;;
25846;SDS011;13676;50.168;8.568;2022-09-09T09:36:55;19.33;;;7.45;;
25846;SDS011;13676;50.168;8.568;2022-09-09T09:39:26;20.30;;;5.25;;
25846;SDS011;13676;50.168;8.568;2022-09-09T09:41:54;20.00;;;4.22;;
25846;SDS011;13676;50.168;8.568;2022-09-09T09:44:22;10.18;;;2.80;;
25846;SDS011;13676;50.168;8.568;2022-09-09T09:46:48;4.87;;;1.93;;
25846;SDS011;13676;50.168;8.568;2022-09-09T09:49:13;8.05;;;1.90;;
25846;SDS011;13676;50.168;8.568;2022-09-09T09:51:38;5.15;;;1.25;;
25846;SDS011;13676;50.168;8.568;2022-09-09T09:56:43;12.05;;;1.85;;
25846;SDS011;13676;50.168;8.568;2022-09-09T09:59:20;5.40;;;1.58;;
25846;SDS011;13676;50.168;8.568;2022-09-09T10:05:00;8.00;;;2.45;;
25846;SDS011;13676;50.168;8.568;2022-09-09T10:07:26;7.68;;;1.98;;
25846;SDS011;13676;50.168;8.568;2022-09-09T10:09:57;11.05;;;2.63;;
25846;SDS011;13676;50.168;8.568;2022-09-09T10:20:34;3.00;;;1.20;;
25846;SDS011;13676;50.168;8.568;2022-09-09T10:34:16;6.60;;;2.40;;
25846;SDS011;13676;50.168;8.568;2022-09-09T10:36:46;6.97;;;1.50;;
25846;SDS011;13676;50.168;8.568;2022-09-09T10:42:14;4.82;;;1.58;;
25846;SDS011;13676;50.168;8.568;2022-09-09T10:57:29;2.92;;;1.50;;
25846;SDS011;13676;50.168;8.568;2022-09-09T11:00:01;4.13;;;1.60;;
25846;SDS011;13676;50.168;8.568;2022-09-09T11:02:30;7.72;;;1.85;;
25846;SDS011;13676;50.168;8.568;2022-09-09T11:04:59;3.65;;;1.48;;
25846;SDS011;13676;50.168;8.568;2022-09-09T11:07:39;8.75;;;1.80;;
25846;SDS011;13676;50.168;8.568;2022-09-09T11:13:24;6.78;;;1.95;;
25846;SDS011;13676;50.168;8.568;2022-09-09T11:15:53;3.22;;;1.50;;
25846;SDS011;13676;50.168;8.568;2022-09-09T11:18:22;5.13;;;1.63;;
25846;SDS011;13676;50.168;8.568;2022-09-09T11:20:50;5.25;;;1.35;;
25846;SDS011;13676;50.168;8.568;2022-09-09T11:23:25;5.13;;;1.40;;
25846;SDS011;13676;50.168;8.568;2022-09-09T11:25:55;8.77;;;1.50;;
25846;SDS011;13676;50.168;8.568;2022-09-09T11:42:12;3.28;;;0.93;;
25846;SDS011;13676;50.168;8.568;2022-09-09T11:44:41;4.45;;;1.00;;
25846;SDS011;13676;50.168;8.568;2022-09-09T11:52:43;5.45;;;1.30;;
25846;SDS011;13676;50.168;8.568;2022-09-09T11:55:26;2.38;;;0.80;;
25846;SDS011;13676;50.168;8.568;2022-09-09T11:58:00;4.43;;;0.90;;
25846;SDS011;13676;50.168;8.568;2022-09-09T12:00:30;4.68;;;1.40;;
25846;SDS011;13676;50.168;8.568;2022-09-09T12:02:57;3.78;;;1.00;;
25846;SDS011;13676;50.168;8.568;2022-09-09T12:05:23;4.68;;;0.98;;
25846;SDS011;13676;50.168;8.568;2022-09-09T12:08:09;6.53;;;1.30;;
25846;SDS011;13676;50.168;8.568;2022-09-09T12:13:19;4.40;;;1.20;;
25846;SDS011;13676;50.168;8.568;2022-09-09T12:15:54;3.55;;;1.13;;
25846;SDS011;13676;50.168;8.568;2022-09-09T12:18:42;4.55;;;1.25;;
25846;SDS011;13676;50.168;8.568;2022-09-09T12:24:13;5.82;;;1.10;;
25846;SDS011;13676;50.168;8.568;2022-09-09T12:32:33;3.92;;;1.23;;
25846;SDS011;13676;50.168;8.568;2022-09-09T12:37:37;5.85;;;1.50;;
25846;SDS011;13676;50.168;8.568;2022-09-09T12:40:27;4.55;;;1.40;;
25846;SDS011;13676;50.168;8.568;2022-09-09T12:42:52;4.95;;;0.82;;
25846;SDS011;13676;50.168;8.568;2022-09-09T12:45:21;5.72;;;1.73;;
25846;SDS011;13676;50.168;8.568;2022-09-09T12:47:55;7.40;;;1.00;;
25846;SDS011;13676;50.168;8.568;2022-09-09T12:50:38;3.35;;;0.82;;
25846;SDS011;13676;50.168;8.568;2022-09-09T12:53:11;2.40;;;0.73;;
25846;SDS011;13676;50.168;8.568;2022-09-09T12:55:55;2.28;;;0.73;;
25846;SDS011;13676;50.168;8.568;2022-09-09T12:58:22;1.13;;;0.50;;
25846;SDS011;13676;50.168;8.568;2022-09-09T13:00:54;2.90;;;0.75;;
25846;SDS011;13676;50.168;8.568;2022-09-09T13:03:23;3.10;;;0.63;;
25846;SDS011;13676;50.168;8.568;2022-09-09T13:05:49;1.33;;;0.47;;
25846;SDS011;13676;50.168;8.568;2022-09-09T13:08:16;1.92;;;0.63;;
25846;SDS011;13676;50.168;8.568;2022-09-09T13:10:49;4.30;;;0.70;;
25846;SDS011;13676;50.168;8.568;2022-09-09T13:13:20;3.28;;;0.75;;
25846;SDS011;13676;50.168;8.568;2022-09-09T13:15:49;1.75;;;0.60;;
25846;SDS011;13676;50.168;8.568;2022-09-09T13:18:16;5.32;;;1.25;;
25846;SDS011;13676;50.168;8.568;2022-09-09T13:20:48;5.70;;;1.50;;
25846;SDS011;13676;50.168;8.568;2022-09-09T13:23:13;8.02;;;1.15;;
25846;SDS011;13676;50.168;8.568;2022-09-09T13:25:39;4.72;;;1.13;;
25846;SDS011;13676;50.168;8.568;2022-09-09T13:28:05;3.03;;;1.10;;
25846;SDS011;13676;50.168;8.568;2022-09-09T13:30:43;2.70;;;1.00;;
25846;SDS011;13676;50.168;8.568;2022-09-09T13:33:22;3.97;;;0.95;;
25846;SDS011;13676;50.168;8.568;2022-09-09T13:35:58;4.35;;;1.10;;
25846;SDS011;13676;50.168;8.568;2022-09-09T13:38:28;4.40;;;1.00;;
25846;SDS011;13676;50.168;8.568;2022-09-09T13:41:01;5.85;;;1.33;;
25846;SDS011;13676;50.168;8.568;2022-09-09T13:46:25;3.47;;;1.30;;
25846;SDS011;13676;50.168;8.568;2022-09-09T13:48:54;4.72;;;1.65;;
25846;SDS011;13676;50.168;8.568;2022-09-09T13:51:21;5.35;;;1.00;;
25846;SDS011;13676;50.168;8.568;2022-09-09T13:54:15;1.75;;;0.70;;
25846;SDS011;13676;50.168;8.568;2022-09-09T13:56:42;6.88;;;1.17;;
25846;SDS011;13676;50.168;8.568;2022-09-09T13:59:12;4.45;;;1.10;;
25846;SDS011;13676;50.168;8.568;2022-09-09T14:01:38;3.15;;;0.80;;
25846;SDS011;13676;50.168;8.568;2022-09-09T14:04:04;2.00;;;0.60;;
25846;SDS011;13676;50.168;8.568;2022-09-09T14:06:32;2.13;;;0.80;;
25846;SDS011;13676;50.168;8.568;2022-09-09T14:09:00;1.95;;;0.70;;
25846;SDS011;13676;50.168;8.568;2022-09-09T14:11:25;2.03;;;0.68;;
25846;SDS011;13676;50.168;8.568;2022-09-09T14:13:50;3.05;;;0.65;;
25846;SDS011;13676;50.168;8.568;2022-09-09T14:16:16;4.20;;;0.90;;
25846;SDS011;13676;50.168;8.568;2022-09-09T14:18:43;2.92;;;0.80;;
25846;SDS011;13676;50.168;8.568;2022-09-09T14:21:09;4.10;;;1.20;;
25846;SDS011;13676;50.168;8.568;2022-09-09T14:23:34;1.70;;;0.65;;
25846;SDS011;13676;50.168;8.568;2022-09-09T14:26:00;3.67;;;0.88;;
25846;SDS011;13676;50.168;8.568;2022-09-09T14:28:25;2.65;;;0.82;;
25846;SDS011;13676;50.168;8.568;2022-09-09T14:30:50;3.67;;;0.90;;
25846;SDS011;13676;50.168;8.568;2022-09-09T14:33:16;3.97;;;0.80;;
25846;SDS011;13676;50.168;8.568;2022-09-09T14:35:42;3.40;;;1.02;;
25846;SDS011;13676;50.168;8.568;2022-09-09T14:38:09;4.32;;;0.98;;
25846;SDS011;13676;50.168;8.568;2022-09-09T14:40:35;1.95;;;0.75;;
25846;SDS011;13676;50.168;8.568;2022-09-09T14:43:01;1.67;;;0.70;;
25846;SDS011;13676;50.168;8.568;2022-09-09T14:45:27;3.67;;;1.30;;
25846;SDS011;13676;50.168;8.568;2022-09-09T14:47:53;1.65;;;0.68;;
25846;SDS011;13676;50.168;8.568;2022-09-09T14:50:21;3.28;;;0.80;;
25846;SDS011;13676;50.168;8.568;2022-09-09T14:52:47;2.30;;;0.70;;
25846;SDS011;13676;50.168;8.568;2022-09-09T14:55:13;5.40;;;0.88;;
25846;SDS011;13676;50.168;8.568;2022-09-09T14:57:39;4.23;;;0.80;;
25846;SDS011;13676;50.168;8.568;2022-09-09T15:00:05;3.50;;;0.82;;
25846;SDS011;13676;50.168;8.568;2022-09-09T15:02:32;4.07;;;0.73;;
25846;SDS011;13676;50.168;8.568;2022-09-09T15:04:57;3.85;;;0.80;;
25846;SDS011;13676;50.168;8.568;2022-09-09T15:07:23;4.65;;;0.98;;
25846;SDS011;13676;50.168;8.568;2022-09-09T15:09:49;4.22;;;1.30;;
25846;SDS011;13676;50.168;8.568;2022-09-09T15:12:14;7.45;;;1.23;;
25846;SDS011;13676;50.168;8.568;2022-09-09T15:14:40;4.55;;;0.90;;
25846;SDS011;13676;50.168;8.568;2022-09-09T15:17:05;3.05;;;1.10;;
25846;SDS011;13676;50.168;8.568;2022-09-09T15:19:31;4.72;;;1.00;;
25846;SDS011;13676;50.168;8.568;2022-09-09T15:21:57;2.65;;;0.98;;
25846;SDS011;13676;50.168;8.568;2022-09-09T15:24:24;4.07;;;1.42;;
25846;SDS011;13676;50.168;8.568;2022-09-09T15:26:51;5.38;;;0.93;;
25846;SDS011;13676;50.168;8.568;2022-09-09T15:29:16;3.65;;;0.80;;
25846;SDS011;13676;50.168;8.568;2022-09-09T15:31:42;4.97;;;1.00;;
25846;SDS011;13676;50.168;8.568;2022-09-09T15:34:07;3.33;;;1.00;;
25846;SDS011;13676;50.168;8.568;2022-09-09T15:36:40;4.97;;;1.40;;
25846;SDS011;13676;50.168;8.568;2022-09-09T15:39:07;4.57;;;1.00;;
25846;SDS011;13676;50.168;8.568;2022-09-09T15:41:34;6.75;;;1.38;;
25846;SDS011;13676;50.168;8.568;2022-09-09T15:44:00;2.53;;;0.77;;
25846;SDS011;13676;50.168;8.568;2022-09-09T15:46:30;1.63;;;0.55;;
25846;SDS011;13676;50.168;8.568;2022-09-09T15:49:12;5.23;;;1.27;;
25846;SDS011;13676;50.168;8.568;2022-09-09T15:51:39;6.60;;;0.98;;
25846;SDS011;13676;50.168;8.568;2022-09-09T15:54:13;3.92;;;0.80;;
25846;SDS011;13676;50.168;8.568;2022-09-09T15:56:41;3.70;;;0.90;;
25846;SDS011;13676;50.168;8.568;2022-09-09T15:59:07;5.90;;;0.98;;
25846;SDS011;13676;50.168;8.568;2022-09-09T16:01:33;3.13;;;0.80;;
25846;SDS011;13676;50.168;8.568;2022-09-09T16:03:59;5.60;;;1.20;;
25846;SDS011;13676;50.168;8.568;2022-09-09T16:06:25;3.08;;;0.80;;
25846;SDS011;13676;50.168;8.568;2022-09-09T16:08:53;2.22;;;0.73;;
25846;SDS011;13676;50.168;8.568;2022-09-09T16:11:23;2.08;;;0.90;;
25846;SDS011;13676;50.168;8.568;2022-09-09T16:13:51;4.68;;;1.30;;
25846;SDS011;13676;50.168;8.568;2022-09-09T16:16:18;3.10;;;0.70;;
25846;SDS011;13676;50.168;8.568;2022-09-09T16:21:23;5.22;;;0.90;;
25846;SDS011;13676;50.168;8.568;2022-09-09T16:23:53;5.18;;;1.63;;
25846;SDS011;13676;50.168;8.568;2022-09-09T16:26:18;2.85;;;1.00;;
25846;SDS011;13676;50.168;8.568;2022-09-09T16:28:44;5.15;;;0.77;;
25846;SDS011;13676;50.168;8.568;2022-09-09T16:31:12;2.40;;;0.60;;
25846;SDS011;13676;50.168;8.568;2022-09-09T16:33:39;4.90;;;1.02;;
25846;SDS011;13676;50.168;8.568;2022-09-09T16:36:11;3.05;;;0.88;;
25846;SDS011;13676;50.168;8.568;2022-09-09T16:38:39;3.88;;;0.95;;
25846;SDS011;13676;50.168;8.568;2022-09-09T16:41:05;4.47;;;0.93;;
25846;SDS011;13676;50.168;8.568;2022-09-09T16:43:31;1.35;;;0.77;;
25846;SDS011;13676;50.168;8.568;2022-09-09T16:45:57;1.40;;;0.60;;
25846;SDS011;13676;50.168;8.568;2022-09-09T16:48:25;1.90;;;0.63;;
25846;SDS011;13676;50.168;8.568;2022-09-09T16:50:51;1.13;;;0.50;;
25846;SDS011;13676;50.168;8.568;2022-09-09T16:53:16;1.73;;;0.65;;
25846;SDS011;13676;50.168;8.568;2022-09-09T16:55:41;2.28;;;0.80;;
25846;SDS011;13676;50.168;8.568;2022-09-09T16:58:07;1.92;;;0.60;;
25846;SDS011;13676;50.168;8.568;2022-09-09T17:00:36;3.42;;;0.80;;
25846;SDS011;13676;50.168;8.568;2022-09-09T17:03:02;1.90;;;0.77;;
25846;SDS011;13676;50.168;8.568;2022-09-09T17:05:27;3.38;;;0.90;;
25846;SDS011;13676;50.168;8.568;2022-09-09T17:07:54;1.55;;;0.60;;
25846;SDS011;13676;50.168;8.568;2022-09-09T17:10:22;6.15;;;1.02;;
25846;SDS011;13676;50.168;8.568;2022-09-09T17:12:48;1.20;;;0.60;;